createdAt,value
2022-10-22T00:00:50.870Z,92.66
2022-10-22T00:01:54.560Z,92.25
2022-10-22T00:02:57.478Z,92.11
2022-10-22T00:04:02.454Z,92.51
2022-10-22T00:05:06.286Z,92.21
2022-10-22T00:06:12.301Z,92.93
2022-10-22T00:07:15.223Z,92.96
2022-10-22T00:08:19.221Z,92.47
2022-10-22T00:09:21.914Z,93.09
2022-10-22T00:10:25.726Z,92.26
2022-10-22T00:11:28.543Z,92.90
2022-10-22T00:12:32.302Z,93.20
2022-10-22T00:13:35.101Z,93.38
2022-10-22T00:14:39.001Z,93.48
2022-10-22T00:15:41.642Z,93.20
2022-10-22T00:16:45.770Z,93.38
2022-10-22T00:17:49.856Z,93.38
2022-10-22T00:18:53.674Z,93.26
2022-10-22T00:19:56.494Z,93.49
2022-10-22T00:21:00.602Z,93.11
2022-10-22T00:22:07.324Z,93.24
2022-10-22T00:23:11.155Z,92.93
2022-10-22T00:24:16.904Z,92.87
2022-10-22T00:25:20.783Z,93.23
2022-10-22T00:26:23.831Z,92.66
2022-10-22T00:27:27.804Z,92.31
2022-10-22T00:28:30.571Z,92.21
2022-10-22T00:29:34.717Z,92.81
2022-10-22T00:30:37.479Z,92.44
2022-10-22T00:31:41.452Z,92.08
2022-10-22T00:32:44.359Z,92.24
2022-10-22T00:33:48.643Z,92.39
2022-10-22T00:34:54.401Z,92.22
2022-10-22T00:35:58.871Z,92.89
2022-10-22T00:37:01.753Z,92.91
2022-10-22T00:38:07.270Z,92.12
2022-10-22T00:39:11.493Z,92.45
2022-10-22T00:40:14.379Z,92.24
2022-10-22T00:41:18.265Z,92.37
2022-10-22T00:42:23.105Z,92.93
2022-10-22T00:43:27.012Z,93.34
2022-10-22T00:45:06.764Z,92.77
2022-10-22T00:46:10.505Z,93.02
2022-10-22T00:47:13.932Z,93.09
2022-10-22T00:48:20.993Z,92.87
2022-10-22T00:49:23.731Z,92.92
2022-10-22T00:50:30.827Z,92.88
2022-10-22T00:51:36.515Z,92.83
2022-10-22T00:52:41.024Z,92.35
2022-10-22T00:53:48.562Z,92.42
2022-10-22T00:54:52.763Z,91.65
2022-10-22T00:55:55.890Z,91.86
2022-10-22T00:56:59.895Z,91.70
2022-10-22T00:58:03.282Z,91.86
2022-10-22T01:00:15.633Z,91.57
2022-10-22T01:01:21.749Z,91.98
2022-10-22T01:02:24.873Z,91.83
2022-10-22T01:03:28.571Z,91.64
2022-10-22T01:04:31.299Z,91.85
2022-10-22T01:05:42.962Z,92.08
2022-10-22T01:06:45.681Z,91.73
2022-10-22T01:07:52.524Z,91.68
2022-10-22T01:09:05.711Z,91.63
2022-10-22T01:10:14.752Z,91.29
2022-10-22T01:11:22.801Z,91.50
2022-10-22T01:12:35.463Z,91.35
2022-10-22T01:13:48.784Z,91.75
2022-10-22T01:15:06.972Z,92.62
2022-10-22T01:16:12.212Z,92.70
2022-10-22T01:18:28.743Z,92.89
2022-10-22T01:19:50.913Z,92.55
2022-10-22T01:21:03.253Z,92.46
2022-10-22T01:22:11.332Z,91.97
2022-10-22T01:23:24.642Z,92.44
2022-10-22T01:24:58.150Z,92.33
2022-10-22T01:26:05.754Z,92.70
2022-10-22T01:27:17.785Z,92.42
2022-10-22T01:28:26.801Z,92.11
2022-10-22T01:29:35.788Z,92.34
2022-10-22T01:30:40.323Z,92.12
2022-10-22T01:31:46.782Z,91.86
2022-10-22T01:32:52.982Z,91.71
2022-10-22T01:33:56.070Z,92.02
2022-10-22T01:35:04.664Z,91.89
2022-10-22T01:36:08.721Z,91.29
2022-10-22T01:37:12.748Z,91.19
2022-10-22T01:38:18.259Z,91.39
2022-10-22T01:39:23.513Z,91.18
2022-10-22T01:40:28.142Z,91.61
2022-10-22T01:41:31.873Z,91.74
2022-10-22T01:42:35.652Z,91.64
2022-10-22T01:43:38.433Z,91.89
2022-10-22T01:44:44.000Z,92.17
2022-10-22T01:45:48.818Z,92.08
2022-10-22T01:46:55.513Z,92.13
2022-10-22T01:48:05.708Z,92.17
2022-10-22T01:49:19.123Z,92.43
2022-10-22T01:50:35.058Z,92.24
2022-10-22T01:51:47.274Z,92.86
2022-10-22T01:53:11.962Z,92.83
2022-10-22T01:54:23.259Z,93.48
2022-10-22T01:55:30.543Z,92.91
2022-10-22T01:56:45.862Z,93.19
2022-10-22T01:57:53.697Z,93.03
2022-10-22T01:59:05.873Z,92.89
2022-10-22T02:00:12.001Z,93.13
2022-10-22T02:01:20.001Z,93.17
2022-10-22T02:02:31.630Z,92.94
2022-10-22T02:03:39.054Z,93.40
2022-10-22T02:04:43.989Z,93.31
2022-10-22T02:05:50.841Z,93.46
2022-10-22T02:06:55.941Z,93.63
2022-10-22T02:08:04.531Z,93.21
2022-10-22T02:09:08.577Z,93.13
2022-10-22T02:10:13.989Z,92.93
2022-10-22T02:11:17.040Z,92.85
2022-10-22T02:12:22.543Z,93.07
2022-10-22T02:13:28.316Z,92.95
2022-10-22T02:14:33.683Z,92.76
2022-10-22T02:15:39.145Z,93.27
2022-10-22T02:16:45.773Z,92.89
2022-10-22T02:17:49.213Z,92.91
2022-10-22T02:18:56.191Z,93.26
2022-10-22T02:20:02.361Z,93.39
2022-10-22T02:22:10.027Z,93.38
2022-10-22T02:23:14.313Z,93.10
2022-10-22T02:24:17.683Z,93.13
2022-10-22T02:25:23.412Z,93.12
2022-10-22T02:26:36.357Z,93.16
2022-10-22T02:27:45.557Z,92.91
2022-10-22T02:28:59.023Z,93.26
2022-10-22T02:30:06.537Z,93.12
2022-10-22T02:31:14.034Z,93.20
2022-10-22T02:32:20.784Z,93.18
2022-10-22T02:33:27.073Z,93.01
2022-10-22T02:34:33.229Z,92.88
2022-10-22T02:35:36.515Z,92.73
2022-10-22T02:36:41.245Z,92.71
2022-10-22T02:37:44.095Z,92.48
2022-10-22T02:38:49.232Z,92.68
2022-10-22T02:39:53.180Z,92.85
2022-10-22T02:40:56.992Z,92.94
2022-10-22T02:42:01.554Z,93.39
2022-10-22T02:43:06.571Z,93.18
2022-10-22T02:44:10.625Z,93.14
2022-10-22T02:45:14.452Z,92.88
2022-10-22T02:46:18.471Z,92.69
2022-10-22T02:47:22.364Z,92.83
2022-10-22T02:48:25.035Z,92.91
2022-10-22T02:49:29.293Z,92.90
2022-10-22T02:50:32.092Z,92.67
2022-10-22T02:51:35.890Z,92.56
2022-10-22T02:52:39.336Z,92.47
2022-10-22T02:53:43.311Z,92.67
2022-10-22T02:54:46.213Z,92.61
2022-10-22T02:55:49.974Z,92.54
2022-10-22T02:56:53.332Z,92.53
2022-10-22T02:57:57.092Z,92.34
2022-10-22T02:58:59.782Z,92.40
2022-10-22T03:00:03.571Z,92.03
2022-10-22T03:01:06.571Z,92.35
2022-10-22T03:02:11.982Z,92.13
2022-10-22T03:03:14.772Z,92.14
2022-10-22T03:04:20.422Z,92.04
2022-10-22T03:05:24.847Z,92.19
2022-10-22T03:06:28.583Z,92.01
2022-10-22T03:07:31.869Z,92.07
2022-10-22T03:08:36.211Z,92.23
2022-10-22T03:09:39.382Z,91.94
2022-10-22T03:10:43.362Z,91.77
2022-10-22T03:11:46.106Z,92.05
2022-10-22T03:12:50.414Z,91.96
2022-10-22T03:13:53.113Z,92.32
2022-10-22T03:14:56.883Z,92.62
2022-10-22T03:15:59.621Z,92.32
2022-10-22T03:17:07.721Z,92.18
2022-10-22T03:18:14.973Z,92.42
2022-10-22T03:19:18.821Z,92.40
2022-10-22T03:20:21.524Z,92.21
2022-10-22T03:21:32.093Z,92.06
2022-10-22T03:22:36.194Z,92.19
2022-10-22T03:23:44.201Z,92.15
2022-10-22T03:24:49.142Z,92.34
2022-10-22T03:25:52.937Z,92.76
2022-10-22T03:26:55.759Z,92.19
2022-10-22T03:28:03.321Z,92.48
2022-10-22T03:29:06.359Z,92.60
2022-10-22T03:30:11.213Z,92.99
2022-10-22T03:31:13.932Z,92.75
2022-10-22T03:32:17.751Z,92.68
2022-10-22T03:33:21.902Z,92.61
2022-10-22T03:34:25.905Z,92.80
2022-10-22T03:35:28.711Z,92.68
2022-10-22T03:36:33.715Z,92.98
2022-10-22T03:37:37.136Z,92.83
2022-10-22T03:38:41.461Z,92.51
2022-10-22T03:39:44.323Z,92.89
2022-10-22T03:40:48.343Z,92.76
2022-10-22T03:41:51.972Z,92.82
2022-10-22T03:42:55.813Z,93.07
2022-10-22T03:43:58.533Z,93.15
2022-10-22T03:45:02.236Z,93.07
2022-10-22T03:46:05.211Z,93.18
2022-10-22T03:47:09.031Z,92.77
2022-10-22T03:48:11.764Z,93.03
2022-10-22T03:49:17.001Z,93.08
2022-10-22T03:50:19.831Z,92.80
2022-10-22T03:51:23.669Z,92.73
2022-10-22T03:52:26.463Z,92.67
2022-10-22T03:53:30.223Z,93.02
2022-10-22T03:54:33.000Z,92.87
2022-10-22T03:55:38.343Z,93.10
2022-10-22T03:56:43.194Z,93.08
2022-10-22T03:57:46.102Z,93.17
2022-10-22T03:58:49.870Z,93.21
2022-10-22T03:59:52.603Z,93.04
2022-10-22T04:00:56.834Z,92.90
2022-10-22T04:01:59.706Z,92.63
2022-10-22T04:03:04.033Z,93.10
2022-10-22T04:04:06.921Z,92.89
2022-10-22T04:06:21.584Z,92.79
2022-10-22T04:07:25.262Z,93.19
2022-10-22T04:08:27.983Z,93.11
2022-10-22T04:09:32.867Z,93.19
2022-10-22T04:10:36.116Z,93.12
2022-10-22T04:11:40.382Z,93.21
2022-10-22T04:12:43.603Z,93.32
2022-10-22T04:13:47.332Z,92.97
2022-10-22T04:14:50.093Z,92.71
2022-10-22T04:15:54.894Z,93.02
2022-10-22T04:16:57.552Z,93.09
2022-10-22T04:18:01.273Z,93.11
2022-10-22T04:19:04.034Z,93.23
2022-10-22T04:20:08.960Z,93.02
2022-10-22T04:21:14.792Z,93.16
2022-10-22T04:22:18.813Z,93.77
2022-10-22T04:23:23.383Z,93.64
2022-10-22T04:24:32.197Z,93.63
2022-10-22T04:25:34.880Z,93.34
2022-10-22T04:26:39.172Z,93.29
2022-10-22T04:27:42.147Z,93.30
2022-10-22T04:28:46.921Z,93.64
2022-10-22T04:29:49.708Z,93.97
2022-10-22T04:30:54.289Z,94.03
2022-10-22T04:31:57.062Z,94.13
2022-10-22T04:33:00.855Z,93.92
2022-10-22T04:34:03.535Z,93.99
2022-10-22T04:35:08.353Z,94.33
2022-10-22T04:36:14.960Z,94.19
2022-10-22T04:37:18.782Z,94.49
2022-10-22T04:38:21.613Z,94.29
2022-10-22T04:39:25.381Z,94.41
2022-10-22T04:40:28.126Z,94.15
2022-10-22T04:41:34.432Z,94.31
2022-10-22T04:42:37.910Z,94.06
2022-10-22T04:43:41.993Z,94.17
2022-10-22T04:44:46.883Z,94.41
2022-10-22T04:45:49.548Z,94.41
2022-10-22T04:46:53.360Z,94.24
2022-10-22T04:47:56.023Z,94.38
2022-10-22T04:49:00.230Z,94.59
2022-10-22T04:50:09.721Z,95.22
2022-10-22T04:51:16.572Z,95.24
2022-10-22T04:52:20.302Z,95.46
2022-10-22T04:53:22.994Z,95.63
2022-10-22T04:54:29.135Z,96.00
2022-10-22T04:55:36.404Z,96.16
2022-10-22T04:56:40.774Z,96.23
2022-10-22T04:57:45.162Z,96.26
2022-10-22T04:58:49.763Z,96.00
2022-10-22T04:59:54.500Z,96.14
2022-10-22T05:00:57.936Z,96.27
2022-10-22T05:02:03.421Z,96.05
2022-10-22T05:03:06.127Z,95.95
2022-10-22T05:04:14.351Z,95.89
2022-10-22T05:05:17.713Z,95.85
2022-10-22T05:06:23.930Z,95.38
2022-10-22T05:07:29.683Z,95.06
2022-10-22T05:08:33.585Z,95.18
2022-10-22T05:09:36.362Z,94.88
2022-10-22T05:10:40.074Z,94.84
2022-10-22T05:11:46.431Z,94.89
2022-10-22T05:12:50.324Z,94.55
2022-10-22T05:13:53.422Z,94.53
2022-10-22T05:14:57.362Z,94.35
2022-10-22T05:16:02.025Z,94.48
2022-10-22T05:17:05.760Z,94.31
2022-10-22T05:18:08.473Z,94.50
2022-10-22T05:19:17.053Z,94.28
2022-10-22T05:20:19.683Z,94.63
2022-10-22T05:21:25.050Z,94.74
2022-10-22T05:22:28.091Z,94.91
2022-10-22T05:23:31.864Z,95.27
2022-10-22T05:24:37.436Z,95.11
2022-10-22T05:25:40.262Z,95.11
2022-10-22T05:26:44.012Z,95.19
2022-10-22T05:27:50.181Z,95.57
2022-10-22T05:28:54.133Z,95.42
2022-10-22T05:29:56.830Z,95.48
2022-10-22T05:31:02.091Z,95.23
2022-10-22T05:32:05.234Z,95.41
2022-10-22T05:33:09.017Z,95.32
2022-10-22T05:34:11.751Z,95.25
2022-10-22T05:35:15.593Z,95.13
2022-10-22T05:36:19.863Z,95.04
2022-10-22T05:37:25.065Z,94.96
2022-10-22T05:38:27.868Z,95.00
2022-10-22T05:39:31.642Z,94.74
2022-10-22T05:40:34.421Z,94.74
2022-10-22T05:41:38.348Z,94.75
2022-10-22T05:42:41.346Z,94.56
2022-10-22T05:43:45.532Z,94.23
2022-10-22T05:44:48.918Z,94.39
2022-10-22T05:45:52.652Z,94.43
2022-10-22T05:46:56.472Z,94.67
2022-10-22T05:47:59.121Z,95.25
2022-10-22T05:49:05.184Z,95.47
2022-10-22T05:50:08.762Z,95.54
2022-10-22T05:51:13.948Z,95.38
2022-10-22T05:52:16.764Z,95.09
2022-10-22T05:53:21.932Z,95.11
2022-10-22T05:54:24.872Z,94.77
2022-10-22T05:55:28.743Z,95.06
2022-10-22T05:56:32.472Z,95.43
2022-10-22T05:57:36.236Z,95.04
2022-10-22T05:58:39.464Z,95.25
2022-10-22T05:59:43.263Z,95.06
2022-10-22T06:00:45.983Z,94.78
2022-10-22T06:01:49.764Z,95.27
2022-10-22T06:02:52.514Z,95.52
2022-10-22T06:03:57.313Z,96.26
2022-10-22T06:05:00.408Z,96.74
2022-10-22T06:06:06.632Z,96.85
2022-10-22T06:07:11.281Z,96.95
2022-10-22T06:08:18.194Z,96.69
2022-10-22T06:09:26.818Z,96.15
2022-10-22T06:10:29.734Z,96.20
2022-10-22T06:11:35.165Z,96.73
2022-10-22T06:12:38.493Z,96.89
2022-10-22T06:13:42.421Z,96.20
2022-10-22T06:14:45.124Z,96.21
2022-10-22T06:15:48.924Z,96.22
2022-10-22T06:16:52.203Z,96.56
2022-10-22T06:17:55.931Z,96.70
2022-10-22T06:19:00.281Z,97.74
2022-10-22T06:21:14.304Z,99.68
2022-10-22T06:22:17.004Z,100.00
2022-10-22T06:23:20.860Z,100.00
2022-10-22T06:24:25.010Z,100.00
2022-10-22T06:25:28.754Z,100.00
2022-10-22T06:26:33.041Z,100.00
2022-10-22T06:27:35.726Z,100.00
2022-10-22T06:28:40.002Z,100.00
2022-10-22T06:29:42.721Z,100.00
2022-10-22T06:30:46.732Z,100.00
2022-10-22T06:31:50.920Z,100.00
2022-10-22T06:32:53.644Z,100.00
2022-10-22T06:33:58.078Z,100.00
2022-10-22T06:35:00.832Z,100.00
2022-10-22T06:36:08.418Z,100.00
2022-10-22T06:37:14.082Z,100.00
2022-10-22T06:38:16.915Z,100.00
2022-10-22T06:39:20.665Z,100.00
2022-10-22T06:40:24.866Z,100.00
2022-10-22T06:41:29.597Z,100.00
2022-10-22T06:42:32.501Z,100.00
2022-10-22T06:43:36.336Z,100.00
2022-10-22T06:44:39.134Z,100.00
2022-10-22T06:45:42.877Z,100.00
2022-10-22T06:46:45.823Z,100.00
2022-10-22T06:47:49.527Z,99.69
2022-10-22T06:48:53.696Z,99.35
2022-10-22T06:49:57.421Z,99.02
2022-10-22T06:51:02.511Z,98.68
2022-10-22T06:52:06.448Z,97.93
2022-10-22T06:53:09.317Z,97.50
2022-10-22T06:54:13.401Z,97.14
2022-10-22T06:55:16.281Z,97.03
2022-10-22T06:56:23.315Z,97.30
2022-10-22T06:57:26.051Z,96.92
2022-10-22T06:58:29.722Z,98.01
2022-10-22T06:59:32.602Z,98.83
2022-10-22T07:00:36.442Z,99.21
2022-10-22T07:01:39.607Z,99.51
2022-10-22T07:02:43.672Z,99.50
2022-10-22T07:03:46.755Z,99.72
2022-10-22T07:04:50.521Z,99.71
2022-10-22T07:05:53.199Z,100.00
2022-10-22T07:06:57.006Z,100.00
2022-10-22T07:07:59.682Z,100.00
2022-10-22T07:09:03.511Z,99.65
2022-10-22T07:10:07.410Z,99.19
2022-10-22T07:11:14.064Z,98.65
2022-10-22T07:12:18.210Z,96.17
2022-10-22T07:13:21.985Z,94.22
2022-10-22T07:14:24.632Z,93.57
2022-10-22T07:15:28.320Z,93.57
2022-10-22T07:16:32.546Z,94.06
2022-10-22T07:17:36.457Z,94.02
2022-10-22T07:18:41.141Z,93.43
2022-10-22T07:19:48.417Z,93.08
2022-10-22T07:20:53.911Z,92.22
2022-10-22T07:21:57.655Z,91.51
2022-10-22T07:23:00.332Z,91.51
2022-10-22T07:24:04.087Z,91.60
2022-10-22T07:25:07.599Z,91.33
2022-10-22T07:26:13.161Z,89.88
2022-10-22T07:27:17.252Z,89.55
2022-10-22T07:28:21.369Z,89.95
2022-10-22T07:29:24.083Z,89.70
2022-10-22T07:30:27.783Z,88.92
2022-10-22T07:31:30.614Z,88.47
2022-10-22T07:32:34.332Z,88.42
2022-10-22T07:33:37.556Z,87.96
2022-10-22T07:34:43.835Z,87.41
2022-10-22T07:35:47.108Z,86.36
2022-10-22T07:36:51.343Z,86.29
2022-10-22T07:37:54.033Z,86.21
2022-10-22T07:38:59.553Z,86.36
2022-10-22T07:40:03.866Z,85.23
2022-10-22T07:41:08.114Z,85.98
2022-10-22T07:42:12.384Z,85.23
2022-10-22T07:43:16.535Z,84.68
2022-10-22T07:44:20.323Z,85.45
2022-10-22T07:45:23.111Z,85.04
2022-10-22T07:46:27.692Z,83.71
2022-10-22T07:47:30.422Z,84.51
2022-10-22T07:48:34.254Z,84.32
2022-10-22T07:49:37.062Z,84.07
2022-10-22T07:50:40.927Z,84.38
2022-10-22T07:51:43.622Z,84.17
2022-10-22T07:52:47.572Z,84.72
2022-10-22T07:53:50.542Z,84.25
2022-10-22T07:54:54.303Z,83.42
2022-10-22T07:55:57.173Z,83.81
2022-10-22T07:57:00.962Z,83.15
2022-10-22T07:58:03.632Z,83.09
2022-10-22T07:59:08.842Z,83.13
2022-10-22T08:00:12.806Z,83.35
2022-10-22T08:01:16.572Z,83.06
2022-10-22T08:02:19.331Z,83.11
2022-10-22T08:03:23.080Z,82.71
2022-10-22T08:04:26.793Z,82.11
2022-10-22T08:05:29.512Z,82.70
2022-10-22T08:06:33.216Z,82.77
2022-10-22T08:07:35.973Z,82.19
2022-10-22T08:08:40.288Z,81.70
2022-10-22T08:09:43.024Z,81.96
2022-10-22T08:10:47.941Z,81.63
2022-10-22T08:11:51.104Z,80.76
2022-10-22T08:12:54.881Z,80.22
2022-10-22T08:13:57.587Z,80.20
2022-10-22T08:15:02.743Z,80.75
2022-10-22T08:16:05.950Z,80.19
2022-10-22T08:17:09.713Z,80.69
2022-10-22T08:18:12.423Z,80.34
2022-10-22T08:19:18.960Z,80.02
2022-10-22T08:20:21.743Z,80.09
2022-10-22T08:21:25.493Z,79.98
2022-10-22T08:22:28.342Z,79.98
2022-10-22T08:23:32.003Z,79.77
2022-10-22T08:24:34.747Z,79.35
2022-10-22T08:25:38.636Z,78.99
2022-10-22T08:26:42.903Z,78.85
2022-10-22T08:27:45.722Z,79.18
2022-10-22T08:28:49.402Z,78.28
2022-10-22T08:29:52.143Z,78.38
2022-10-22T08:30:57.570Z,78.54
2022-10-22T08:32:02.982Z,78.95
2022-10-22T08:33:06.920Z,78.51
2022-10-22T08:34:09.691Z,78.08
2022-10-22T08:35:16.811Z,78.58
2022-10-22T08:36:20.631Z,78.72
2022-10-22T08:37:24.549Z,78.73
2022-10-22T08:38:28.309Z,78.50
2022-10-22T08:39:31.031Z,78.23
2022-10-22T08:40:37.504Z,78.18
2022-10-22T08:41:46.990Z,78.44
2022-10-22T08:43:19.345Z,77.75
2022-10-22T08:44:41.345Z,78.24
2022-10-22T08:45:47.953Z,77.85
2022-10-22T08:47:02.034Z,78.32
2022-10-22T08:48:11.973Z,78.03
2022-10-22T08:49:21.042Z,78.16
2022-10-22T08:50:29.560Z,78.34
2022-10-22T08:51:35.301Z,78.45
2022-10-22T08:52:40.252Z,78.37
2022-10-22T08:53:51.081Z,78.03
2022-10-22T08:54:58.352Z,78.52
2022-10-22T08:56:01.201Z,78.05
2022-10-22T08:57:20.953Z,78.26
2022-10-22T08:58:28.516Z,78.59
2022-10-22T08:59:38.684Z,77.85
2022-10-22T09:00:46.267Z,78.15
2022-10-22T09:01:51.256Z,77.99
2022-10-22T09:03:06.589Z,78.07
2022-10-22T09:04:15.782Z,77.80
2022-10-22T09:05:34.411Z,77.75
2022-10-22T09:06:39.332Z,77.37
2022-10-22T09:07:43.743Z,77.66
2022-10-22T09:08:48.698Z,77.41
2022-10-22T09:09:52.531Z,77.25
2022-10-22T09:10:59.234Z,77.17
2022-10-22T09:12:04.902Z,76.74
2022-10-22T09:13:09.482Z,76.40
2022-10-22T09:15:23.812Z,76.79
2022-10-22T09:16:34.941Z,76.96
2022-10-22T09:17:41.874Z,76.65
2022-10-22T09:18:56.232Z,77.09
2022-10-22T09:20:05.195Z,76.96
2022-10-22T09:21:18.033Z,76.56
2022-10-22T09:22:28.291Z,76.90
2022-10-22T09:23:37.716Z,76.71
2022-10-22T09:24:44.684Z,76.35
2022-10-22T09:25:49.382Z,76.07
2022-10-22T09:26:53.112Z,76.11
2022-10-22T09:27:58.772Z,75.04
2022-10-22T09:29:03.183Z,75.45
2022-10-22T09:30:08.059Z,74.92
2022-10-22T09:31:12.694Z,75.27
2022-10-22T09:32:17.204Z,74.80
2022-10-22T09:33:24.966Z,74.88
2022-10-22T09:34:31.333Z,75.07
2022-10-22T09:35:34.848Z,74.51
2022-10-22T09:36:39.725Z,74.75
2022-10-22T09:37:50.852Z,75.09
2022-10-22T09:38:55.132Z,75.05
2022-10-22T09:39:59.370Z,74.38
2022-10-22T09:41:05.190Z,73.89
2022-10-22T09:42:08.516Z,74.11
2022-10-22T09:43:14.180Z,74.14
2022-10-22T09:44:18.615Z,74.04
2022-10-22T09:45:25.178Z,74.34
2022-10-22T09:46:29.591Z,74.22
2022-10-22T09:47:43.464Z,74.10
2022-10-22T09:49:02.473Z,73.83
2022-10-22T09:50:14.001Z,74.11
2022-10-22T09:51:21.702Z,74.15
2022-10-22T09:52:28.264Z,74.48
2022-10-22T09:53:33.492Z,74.44
2022-10-22T09:54:40.225Z,74.58
2022-10-22T09:55:45.033Z,74.51
2022-10-22T09:56:53.441Z,74.70
2022-10-22T09:57:59.152Z,74.95
2022-10-22T09:59:03.317Z,74.50
2022-10-22T10:00:09.821Z,74.90
2022-10-22T10:01:19.219Z,74.68
2022-10-22T10:02:39.239Z,74.59
2022-10-22T10:03:43.012Z,74.46
2022-10-22T10:04:48.236Z,74.57
2022-10-22T10:05:55.162Z,74.61
2022-10-22T10:06:58.591Z,74.72
2022-10-22T10:08:09.992Z,74.49
2022-10-22T10:09:16.405Z,74.56
2022-10-22T10:10:26.571Z,74.52
2022-10-22T10:11:33.314Z,75.12
2022-10-22T10:12:43.280Z,74.81
2022-10-22T10:13:54.819Z,75.04
2022-10-22T10:15:04.733Z,75.19
2022-10-22T10:16:14.215Z,74.95
2022-10-22T10:17:24.811Z,74.53
2022-10-22T10:18:36.799Z,75.11
2022-10-22T10:19:48.844Z,74.71
2022-10-22T10:20:57.103Z,75.10
2022-10-22T10:22:07.652Z,75.16
2022-10-22T10:23:20.629Z,75.01
2022-10-22T10:24:33.803Z,75.18
2022-10-22T10:25:51.369Z,75.02
2022-10-22T10:26:57.569Z,75.64
2022-10-22T10:28:09.372Z,75.38
2022-10-22T10:29:23.623Z,75.69
2022-10-22T10:30:26.518Z,75.39
2022-10-22T10:31:40.234Z,75.66
2022-10-22T10:33:07.508Z,76.10
2022-10-22T10:34:19.710Z,75.57
2022-10-22T10:35:26.710Z,76.07
2022-10-22T10:36:43.291Z,76.20
2022-10-22T10:37:49.815Z,75.84
2022-10-22T10:38:59.251Z,76.33
2022-10-22T10:40:15.127Z,76.95
2022-10-22T10:41:22.720Z,77.14
2022-10-22T10:42:33.001Z,77.46
2022-10-22T10:43:43.205Z,77.45
2022-10-22T10:44:53.180Z,77.87
2022-10-22T10:46:02.845Z,78.26
2022-10-22T10:47:17.318Z,78.20
2022-10-22T10:48:29.203Z,78.59
2022-10-22T10:49:35.121Z,78.97
2022-10-22T10:50:44.102Z,79.11
2022-10-22T10:51:55.764Z,79.21
2022-10-22T10:53:05.242Z,80.07
2022-10-22T10:54:28.247Z,80.37
2022-10-22T10:55:34.502Z,80.38
2022-10-22T10:56:40.154Z,81.44
2022-10-22T10:57:50.191Z,81.89
2022-10-22T10:58:59.282Z,81.42
2022-10-22T11:00:07.311Z,82.72
2022-10-22T11:01:24.994Z,82.26
2022-10-22T11:03:09.543Z,83.78
2022-10-22T11:04:25.252Z,83.55
2022-10-22T11:05:33.872Z,84.24
2022-10-22T11:06:39.422Z,83.52
2022-10-22T11:07:50.957Z,83.98
2022-10-22T11:09:01.112Z,84.19
2022-10-22T11:10:09.403Z,84.76
2022-10-22T11:12:27.921Z,84.85
2022-10-22T11:13:34.910Z,85.00
2022-10-22T11:14:42.341Z,84.63
2022-10-22T11:15:51.069Z,85.06
2022-10-22T11:16:57.487Z,85.23
2022-10-22T11:18:07.710Z,85.22
2022-10-22T11:19:22.578Z,85.43
2022-10-22T11:20:32.044Z,85.88
2022-10-22T11:21:40.144Z,85.85
2022-10-22T11:23:16.922Z,86.94
2022-10-22T11:24:19.870Z,86.83
2022-10-22T11:25:29.092Z,86.65
2022-10-22T11:26:39.868Z,86.61
2022-10-22T11:27:50.758Z,86.99
2022-10-22T11:28:59.251Z,86.71
2022-10-22T11:30:05.151Z,87.23
2022-10-22T11:31:15.028Z,86.88
2022-10-22T11:32:19.612Z,87.06
2022-10-22T11:33:26.665Z,86.72
2022-10-22T11:34:34.429Z,86.56
2022-10-22T11:35:41.227Z,87.18
2022-10-22T11:36:45.441Z,86.95
2022-10-22T11:37:51.154Z,87.45
2022-10-22T11:38:55.278Z,87.44
2022-10-22T11:40:03.274Z,87.73
2022-10-22T11:41:14.298Z,87.23
2022-10-22T11:42:21.230Z,87.06
2022-10-22T11:43:30.192Z,87.35
2022-10-22T11:44:46.632Z,87.68
2022-10-22T11:45:51.983Z,87.53
2022-10-22T11:46:57.851Z,87.52
2022-10-22T11:48:09.735Z,87.54
2022-10-22T11:49:23.841Z,86.97
2022-10-22T11:50:29.003Z,87.67
2022-10-22T11:51:34.171Z,87.37
2022-10-22T11:52:43.073Z,87.69
2022-10-22T11:53:56.714Z,87.41
2022-10-22T11:55:04.111Z,87.67
2022-10-22T11:56:26.281Z,87.66
2022-10-22T11:57:31.504Z,87.91
2022-10-22T11:58:39.781Z,88.02
2022-10-22T11:59:50.987Z,87.33
2022-10-22T12:00:54.408Z,88.26
2022-10-22T12:01:58.285Z,88.07
2022-10-22T12:03:04.254Z,88.13
2022-10-22T12:04:21.596Z,88.10
2022-10-22T12:05:35.408Z,87.93
2022-10-22T12:06:57.360Z,88.13
2022-10-22T12:08:02.762Z,88.39
2022-10-22T12:09:09.021Z,88.58
2022-10-22T12:10:18.482Z,88.70
2022-10-22T12:11:24.085Z,88.73
2022-10-22T12:12:28.957Z,88.61
2022-10-22T12:13:34.081Z,89.16
2022-10-22T12:14:41.951Z,88.83
2022-10-22T12:15:48.360Z,88.80
2022-10-22T12:16:56.910Z,88.83
2022-10-22T12:18:01.405Z,88.69
2022-10-22T12:19:09.154Z,89.69
2022-10-22T12:20:14.031Z,89.69
2022-10-22T12:21:18.225Z,89.41
2022-10-22T12:22:22.710Z,89.50
2022-10-22T12:23:30.912Z,90.13
2022-10-22T12:24:38.363Z,89.73
2022-10-22T12:25:42.094Z,89.61
2022-10-22T12:26:46.324Z,89.80
2022-10-22T12:27:53.603Z,89.64
2022-10-22T12:28:59.331Z,89.74
2022-10-22T12:30:04.272Z,90.17
2022-10-22T12:31:07.109Z,89.42
2022-10-22T12:32:15.714Z,89.99
2022-10-22T12:33:20.791Z,89.71
2022-10-22T12:34:26.192Z,89.68
2022-10-22T12:35:30.121Z,90.08
2022-10-22T12:36:37.871Z,89.62
2022-10-22T12:37:41.826Z,90.05
2022-10-22T12:38:48.522Z,90.36
2022-10-22T12:39:53.760Z,90.22
2022-10-22T12:40:57.309Z,90.40
2022-10-22T12:42:01.067Z,90.34
2022-10-22T12:43:10.984Z,90.25
2022-10-22T12:44:16.852Z,90.49
2022-10-22T12:45:20.287Z,90.40
2022-10-22T12:46:24.070Z,90.46
2022-10-22T12:47:26.761Z,90.24
2022-10-22T12:48:34.547Z,90.69
2022-10-22T12:49:42.568Z,90.44
2022-10-22T12:50:47.630Z,90.20
2022-10-22T12:51:51.712Z,90.10
2022-10-22T12:52:55.353Z,90.35
2022-10-22T12:54:01.782Z,90.60
2022-10-22T12:55:08.596Z,90.74
2022-10-22T12:56:14.052Z,90.13
2022-10-22T12:57:20.153Z,90.32
2022-10-22T12:58:27.245Z,90.17
2022-10-22T12:59:34.627Z,90.37
2022-10-22T13:00:37.510Z,90.68
2022-10-22T13:01:42.444Z,90.72
2022-10-22T13:02:45.752Z,90.19
2022-10-22T13:03:51.921Z,90.89
2022-10-22T13:05:22.635Z,90.42
2022-10-22T13:06:26.372Z,90.83
2022-10-22T13:07:40.479Z,90.39
2022-10-22T13:08:43.345Z,90.45
2022-10-22T13:09:49.462Z,90.46
2022-10-22T13:10:54.770Z,90.61
2022-10-22T13:12:04.902Z,91.08
2022-10-22T13:13:28.431Z,90.74
2022-10-22T13:14:34.574Z,90.57
2022-10-22T13:15:39.175Z,90.97
2022-10-22T13:16:43.195Z,90.85
2022-10-22T13:17:45.999Z,90.52
2022-10-22T13:18:50.357Z,90.40
2022-10-22T13:20:02.350Z,90.55
2022-10-22T13:21:06.583Z,90.49
2022-10-22T13:22:31.272Z,90.61
2022-10-22T13:23:35.796Z,90.82
2022-10-22T13:24:49.424Z,90.73
2022-10-22T13:26:03.231Z,90.56
2022-10-22T13:27:09.709Z,90.79
2022-10-22T13:28:20.087Z,90.81
2022-10-22T13:29:23.994Z,91.29
2022-10-22T13:30:29.622Z,90.70
2022-10-22T13:31:33.942Z,90.31
2022-10-22T13:32:36.789Z,90.55
2022-10-22T13:33:42.330Z,90.53
2022-10-22T13:34:45.062Z,90.63
2022-10-22T13:35:48.854Z,90.54
2022-10-22T13:36:53.329Z,90.98
2022-10-22T13:37:56.061Z,90.93
2022-10-22T13:38:59.754Z,91.00
2022-10-22T13:40:02.461Z,91.13
2022-10-22T13:41:20.320Z,91.24
2022-10-22T13:42:24.108Z,90.91
2022-10-22T13:43:28.247Z,91.52
2022-10-22T13:44:31.128Z,90.83
2022-10-22T13:45:35.131Z,90.90
2022-10-22T13:46:44.310Z,90.96
2022-10-22T13:47:51.773Z,91.05
2022-10-22T13:48:56.884Z,91.28
2022-10-22T13:50:02.043Z,91.05
2022-10-22T13:51:08.629Z,90.67
2022-10-22T13:52:13.831Z,91.34
2022-10-22T13:53:19.201Z,91.19
2022-10-22T13:54:24.378Z,90.85
2022-10-22T13:55:30.104Z,91.00
2022-10-22T13:56:34.671Z,90.91
2022-10-22T13:57:38.451Z,91.74
2022-10-22T13:58:42.671Z,91.73
2022-10-22T13:59:46.423Z,91.69
2022-10-22T14:00:51.405Z,91.73
2022-10-22T14:01:57.239Z,91.99
2022-10-22T14:03:00.763Z,91.99
2022-10-22T14:04:05.932Z,91.86
2022-10-22T14:05:09.902Z,92.09
2022-10-22T14:06:15.691Z,91.42
2022-10-22T14:07:19.745Z,92.24
2022-10-22T14:08:26.011Z,92.11
2022-10-22T14:09:28.851Z,92.89
2022-10-22T14:10:32.781Z,92.80
2022-10-22T14:11:37.160Z,92.68
2022-10-22T14:12:41.022Z,92.79
2022-10-22T14:13:44.771Z,92.98
2022-10-22T14:14:51.856Z,92.85
2022-10-22T14:15:56.492Z,93.02
2022-10-22T14:17:00.234Z,92.54
2022-10-22T14:18:06.397Z,92.80